METAR

Aeronautical MET Report METAR

METAR description (Slovak)

15.07.2019 - 22:00 UTC

METAR LZIB 152200Z 05003KT CAVOK 17/10 Q1014=
METAR LZKZ 152200Z 36007KT CAVOK 14/07 Q1013=
METAR LZPP 152200Z AUTO VRB01KT 9999 SCT094/// 14/11 Q1014=
METAR LZSL 152200Z VRB01KT CAVOK 11/06 Q1014=
METAR LZTT 152200Z 29006KT CAVOK 07/04 Q1015=
METAR LZZI 152200Z 13003KT CAVOK 11/07 Q1015=

15.07.2019 - 21:30 UTC

METAR LZIB 152130Z 06002KT CAVOK 18/09 Q1014=
METAR LZKZ 152130Z 04004KT CAVOK 14/07 Q1013=
METAR LZPP 152130Z AUTO 11001KT 9999 NCD 15/11 Q1014=
METAR LZSL 152130Z 00000KT CAVOK 12/07 Q1014=
METAR LZTT 152130Z 23004KT 200V260 CAVOK 08/05 Q1015=
METAR LZZI 152130Z VRB02KT CAVOK 12/08 Q1015=

15.07.2019 - 21:00 UTC

METAR LZMC 152100Z 13002KT CAVOK 15/12 Q1015=
METAR LZPW 152100Z AUTO 18003KT 9999 ////// 12/07
Q1013=

 

 

skok na menu ↑


skok na začiatok stránky ↑